sensor_id;sensor_type;location;lat;lon;timestamp;pressure;altitude;pressure_sealevel;temperature;humidity
19005;BME280;9635;52.078;8.648;2023-12-20T00:02:37;100130.84;;;5.35;100.00
19005;BME280;9635;52.078;8.648;2023-12-20T00:07:41;100137.47;;;5.42;100.00
19005;BME280;9635;52.078;8.648;2023-12-20T00:12:45;100140.91;;;5.30;100.00
19005;BME280;9635;52.078;8.648;2023-12-20T00:17:48;100151.41;;;4.74;100.00
19005;BME280;9635;52.078;8.648;2023-12-20T00:22:51;100155.84;;;5.18;100.00
19005;BME280;9635;52.078;8.648;2023-12-20T00:27:56;100162.22;;;5.44;100.00
19005;BME280;9635;52.078;8.648;2023-12-20T00:32:59;100165.78;;;4.86;100.00
19005;BME280;9635;52.078;8.648;2023-12-20T00:38:02;100163.34;;;5.26;100.00
19005;BME280;9635;52.078;8.648;2023-12-20T00:43:08;100160.75;;;4.96;100.00
19005;BME280;9635;52.078;8.648;2023-12-20T00:48:11;100158.28;;;4.93;100.00
19005;BME280;9635;52.078;8.648;2023-12-20T00:53:14;100150.63;;;5.02;100.00
19005;BME280;9635;52.078;8.648;2023-12-20T00:58:18;100163.81;;;4.45;100.00
19005;BME280;9635;52.078;8.648;2023-12-20T01:03:21;100168.72;;;4.81;100.00
19005;BME280;9635;52.078;8.648;2023-12-20T01:08:25;100164.25;;;4.96;100.00
19005;BME280;9635;52.078;8.648;2023-12-20T01:13:29;100169.47;;;4.99;100.00
19005;BME280;9635;52.078;8.648;2023-12-20T01:18:32;100170.59;;;5.10;100.00
19005;BME280;9635;52.078;8.648;2023-12-20T01:23:35;100167.69;;;4.98;100.00
19005;BME280;9635;52.078;8.648;2023-12-20T01:28:39;100172.09;;;4.55;100.00
19005;BME280;9635;52.078;8.648;2023-12-20T01:33:42;100172.22;;;4.68;100.00
19005;BME280;9635;52.078;8.648;2023-12-20T01:38:45;100182.13;;;4.50;100.00
19005;BME280;9635;52.078;8.648;2023-12-20T01:43:49;100181.03;;;4.54;100.00
19005;BME280;9635;52.078;8.648;2023-12-20T01:48:54;100190.56;;;4.12;100.00
19005;BME280;9635;52.078;8.648;2023-12-20T01:53:57;100177.53;;;4.68;100.00
19005;BME280;9635;52.078;8.648;2023-12-20T01:59:03;100183.41;;;4.58;100.00
19005;BME280;9635;52.078;8.648;2023-12-20T02:04:06;100168.91;;;4.78;100.00
19005;BME280;9635;52.078;8.648;2023-12-20T02:09:10;100164.19;;;4.39;100.00
19005;BME280;9635;52.078;8.648;2023-12-20T02:14:14;100168.97;;;4.62;100.00
19005;BME280;9635;52.078;8.648;2023-12-20T02:19:17;100151.16;;;4.18;100.00
19005;BME280;9635;52.078;8.648;2023-12-20T02:24:22;100147.41;;;4.53;100.00
19005;BME280;9635;52.078;8.648;2023-12-20T02:29:25;100152.75;;;4.37;100.00
19005;BME280;9635;52.078;8.648;2023-12-20T02:34:28;100163.19;;;4.10;100.00
19005;BME280;9635;52.078;8.648;2023-12-20T02:39:33;100165.19;;;4.06;100.00
19005;BME280;9635;52.078;8.648;2023-12-20T02:44:36;100159.75;;;4.08;100.00
19005;BME280;9635;52.078;8.648;2023-12-20T02:49:39;100146.28;;;4.11;100.00
19005;BME280;9635;52.078;8.648;2023-12-20T02:54:43;100147.00;;;4.14;100.00
19005;BME280;9635;52.078;8.648;2023-12-20T02:59:46;100142.78;;;4.10;100.00
19005;BME280;9635;52.078;8.648;2023-12-20T03:04:49;100128.38;;;4.45;100.00
19005;BME280;9635;52.078;8.648;2023-12-20T03:09:53;100140.66;;;4.17;100.00
19005;BME280;9635;52.078;8.648;2023-12-20T03:15:16;100134.66;;;4.28;100.00
19005;BME280;9635;52.078;8.648;2023-12-20T03:20:19;100147.28;;;4.54;100.00
19005;BME280;9635;52.078;8.648;2023-12-20T03:25:23;100146.84;;;4.62;100.00
19005;BME280;9635;52.078;8.648;2023-12-20T03:30:26;100141.72;;;4.29;100.00
19005;BME280;9635;52.078;8.648;2023-12-20T03:35:29;100141.75;;;4.43;100.00
19005;BME280;9635;52.078;8.648;2023-12-20T03:40:33;100126.00;;;4.54;100.00
19005;BME280;9635;52.078;8.648;2023-12-20T03:45:36;100128.63;;;4.10;100.00
19005;BME280;9635;52.078;8.648;2023-12-20T03:50:40;100114.25;;;4.58;100.00
19005;BME280;9635;52.078;8.648;2023-12-20T03:55:44;100118.22;;;4.51;100.00
19005;BME280;9635;52.078;8.648;2023-12-20T04:00:47;100100.66;;;4.18;100.00
19005;BME280;9635;52.078;8.648;2023-12-20T04:05:50;100117.38;;;4.21;100.00
19005;BME280;9635;52.078;8.648;2023-12-20T04:10:54;100100.34;;;4.39;100.00
19005;BME280;9635;52.078;8.648;2023-12-20T04:15:57;100109.06;;;4.11;100.00
19005;BME280;9635;52.078;8.648;2023-12-20T04:21:00;100103.06;;;4.23;100.00
19005;BME280;9635;52.078;8.648;2023-12-20T04:26:05;100100.94;;;4.58;100.00
19005;BME280;9635;52.078;8.648;2023-12-20T04:31:08;100116.66;;;4.33;100.00
19005;BME280;9635;52.078;8.648;2023-12-20T04:36:11;100120.84;;;4.37;100.00
19005;BME280;9635;52.078;8.648;2023-12-20T04:41:15;100115.19;;;4.57;100.00
19005;BME280;9635;52.078;8.648;2023-12-20T04:46:20;100109.66;;;4.46;100.00
19005;BME280;9635;52.078;8.648;2023-12-20T04:51:23;100105.59;;;4.25;100.00
19005;BME280;9635;52.078;8.648;2023-12-20T04:56:27;100094.13;;;4.24;100.00
19005;BME280;9635;52.078;8.648;2023-12-20T05:01:30;100110.22;;;4.37;100.00
19005;BME280;9635;52.078;8.648;2023-12-20T05:06:33;100094.88;;;4.26;100.00
19005;BME280;9635;52.078;8.648;2023-12-20T05:11:38;100099.03;;;4.60;100.00
19005;BME280;9635;52.078;8.648;2023-12-20T05:16:41;100099.66;;;4.35;100.00
19005;BME280;9635;52.078;8.648;2023-12-20T05:21:44;100090.34;;;4.28;100.00
19005;BME280;9635;52.078;8.648;2023-12-20T05:26:48;100085.53;;;4.49;100.00
19005;BME280;9635;52.078;8.648;2023-12-20T05:31:54;100092.59;;;4.20;100.00
19005;BME280;9635;52.078;8.648;2023-12-20T05:36:57;100090.78;;;4.21;100.00
19005;BME280;9635;52.078;8.648;2023-12-20T05:42:02;100077.69;;;3.87;100.00
19005;BME280;9635;52.078;8.648;2023-12-20T05:47:05;100093.28;;;4.38;100.00
19005;BME280;9635;52.078;8.648;2023-12-20T05:52:08;100096.28;;;4.17;100.00
19005;BME280;9635;52.078;8.648;2023-12-20T05:57:13;100092.69;;;3.72;100.00
19005;BME280;9635;52.078;8.648;2023-12-20T06:02:17;100099.06;;;4.00;100.00
19005;BME280;9635;52.078;8.648;2023-12-20T06:07:20;100095.31;;;4.04;100.00
19005;BME280;9635;52.078;8.648;2023-12-20T06:12:25;100097.44;;;3.98;100.00
19005;BME280;9635;52.078;8.648;2023-12-20T06:17:28;100102.94;;;3.94;100.00
19005;BME280;9635;52.078;8.648;2023-12-20T06:22:32;100102.13;;;4.08;100.00
19005;BME280;9635;52.078;8.648;2023-12-20T06:27:36;100096.59;;;4.27;100.00
19005;BME280;9635;52.078;8.648;2023-12-20T06:32:39;100105.09;;;3.88;100.00
19005;BME280;9635;52.078;8.648;2023-12-20T06:37:43;100111.91;;;4.08;100.00
19005;BME280;9635;52.078;8.648;2023-12-20T06:42:48;100097.22;;;4.16;100.00
19005;BME280;9635;52.078;8.648;2023-12-20T06:48:06;100103.47;;;4.01;100.00
19005;BME280;9635;52.078;8.648;2023-12-20T06:53:09;100076.31;;;3.80;100.00
19005;BME280;9635;52.078;8.648;2023-12-20T06:58:13;100090.34;;;3.98;100.00
19005;BME280;9635;52.078;8.648;2023-12-20T07:03:16;100105.09;;;3.88;100.00
19005;BME280;9635;52.078;8.648;2023-12-20T07:08:19;100094.28;;;3.91;100.00
19005;BME280;9635;52.078;8.648;2023-12-20T07:13:24;100091.47;;;4.24;100.00
19005;BME280;9635;52.078;8.648;2023-12-20T07:18:27;100089.00;;;4.35;100.00
19005;BME280;9635;52.078;8.648;2023-12-20T07:23:30;100087.72;;;4.43;100.00
19005;BME280;9635;52.078;8.648;2023-12-20T07:28:34;100082.16;;;4.17;100.00
19005;BME280;9635;52.078;8.648;2023-12-20T07:33:38;100069.34;;;4.38;100.00
19005;BME280;9635;52.078;8.648;2023-12-20T07:38:41;100073.47;;;4.13;100.00
19005;BME280;9635;52.078;8.648;2023-12-20T07:43:47;100089.25;;;4.61;100.00
19005;BME280;9635;52.078;8.648;2023-12-20T07:48:51;100079.97;;;4.24;100.00
19005;BME280;9635;52.078;8.648;2023-12-20T07:53:54;100088.13;;;4.21;100.00
19005;BME280;9635;52.078;8.648;2023-12-20T07:58:58;100072.44;;;4.16;100.00
19005;BME280;9635;52.078;8.648;2023-12-20T08:04:01;100069.53;;;4.35;100.00
19005;BME280;9635;52.078;8.648;2023-12-20T08:09:05;100063.88;;;4.11;100.00
19005;BME280;9635;52.078;8.648;2023-12-20T08:14:09;100067.53;;;4.38;100.00
19005;BME280;9635;52.078;8.648;2023-12-20T08:19:12;100068.19;;;4.28;100.00
19005;BME280;9635;52.078;8.648;2023-12-20T08:24:15;100101.50;;;4.19;100.00
19005;BME280;9635;52.078;8.648;2023-12-20T08:29:19;100080.59;;;4.13;100.00
19005;BME280;9635;52.078;8.648;2023-12-20T08:34:22;100080.41;;;4.16;100.00
19005;BME280;9635;52.078;8.648;2023-12-20T08:39:26;100066.09;;;4.18;100.00
19005;BME280;9635;52.078;8.648;2023-12-20T08:44:33;100071.19;;;4.52;100.00
19005;BME280;9635;52.078;8.648;2023-12-20T08:49:36;100066.66;;;4.09;100.00
19005;BME280;9635;52.078;8.648;2023-12-20T08:54:39;100058.22;;;4.17;100.00
19005;BME280;9635;52.078;8.648;2023-12-20T08:59:45;100043.50;;;4.11;100.00
19005;BME280;9635;52.078;8.648;2023-12-20T09:04:48;100052.03;;;4.16;100.00
19005;BME280;9635;52.078;8.648;2023-12-20T09:09:52;100027.56;;;4.26;100.00
19005;BME280;9635;52.078;8.648;2023-12-20T09:14:57;100047.34;;;4.06;100.00
19005;BME280;9635;52.078;8.648;2023-12-20T09:20:00;100065.44;;;4.15;100.00
19005;BME280;9635;52.078;8.648;2023-12-20T09:25:05;100019.78;;;4.37;100.00
19005;BME280;9635;52.078;8.648;2023-12-20T09:30:09;100035.81;;;4.21;100.00
19005;BME280;9635;52.078;8.648;2023-12-20T09:35:12;99998.78;;;4.32;100.00
19005;BME280;9635;52.078;8.648;2023-12-20T09:40:18;99975.69;;;4.33;100.00
19005;BME280;9635;52.078;8.648;2023-12-20T09:45:23;100006.31;;;4.40;100.00
19005;BME280;9635;52.078;8.648;2023-12-20T09:50:27;99989.03;;;4.47;100.00
19005;BME280;9635;52.078;8.648;2023-12-20T09:55:33;100010.84;;;4.38;100.00
19005;BME280;9635;52.078;8.648;2023-12-20T10:00:37;99988.91;;;4.49;100.00
19005;BME280;9635;52.078;8.648;2023-12-20T10:05:43;99989.13;;;4.46;100.00
19005;BME280;9635;52.078;8.648;2023-12-20T10:10:46;99976.47;;;4.78;100.00
19005;BME280;9635;52.078;8.648;2023-12-20T10:15:51;99994.72;;;4.70;100.00
19005;BME280;9635;52.078;8.648;2023-12-20T10:20:54;100007.16;;;4.55;100.00
19005;BME280;9635;52.078;8.648;2023-12-20T10:25:57;99961.28;;;4.37;100.00
19005;BME280;9635;52.078;8.648;2023-12-20T10:31:03;99963.75;;;4.40;100.00
19005;BME280;9635;52.078;8.648;2023-12-20T10:36:06;99959.63;;;4.06;100.00
19005;BME280;9635;52.078;8.648;2023-12-20T10:41:10;99969.25;;;4.51;100.00
19005;BME280;9635;52.078;8.648;2023-12-20T10:46:15;99962.78;;;4.41;100.00
19005;BME280;9635;52.078;8.648;2023-12-20T10:51:19;99961.63;;;4.16;100.00
19005;BME280;9635;52.078;8.648;2023-12-20T10:56:23;99955.38;;;4.46;100.00
19005;BME280;9635;52.078;8.648;2023-12-20T11:01:28;99964.34;;;4.31;100.00
19005;BME280;9635;52.078;8.648;2023-12-20T11:06:40;99952.16;;;4.27;100.00
19005;BME280;9635;52.078;8.648;2023-12-20T11:11:52;99945.41;;;4.64;100.00
19005;BME280;9635;52.078;8.648;2023-12-20T11:17:09;99953.47;;;4.20;100.00
19005;BME280;9635;52.078;8.648;2023-12-20T11:22:14;99956.81;;;4.52;100.00
19005;BME280;9635;52.078;8.648;2023-12-20T11:27:18;99951.81;;;4.74;100.00
19005;BME280;9635;52.078;8.648;2023-12-20T11:32:34;99948.06;;;4.50;100.00
19005;BME280;9635;52.078;8.648;2023-12-20T11:37:37;99915.53;;;4.73;100.00
19005;BME280;9635;52.078;8.648;2023-12-20T11:42:46;99919.41;;;4.82;100.00
19005;BME280;9635;52.078;8.648;2023-12-20T11:47:52;99914.69;;;4.73;100.00
19005;BME280;9635;52.078;8.648;2023-12-20T11:52:56;99927.88;;;4.74;100.00
19005;BME280;9635;52.078;8.648;2023-12-20T11:57:59;99910.63;;;5.09;100.00
19005;BME280;9635;52.078;8.648;2023-12-20T12:03:04;99895.22;;;4.72;100.00
19005;BME280;9635;52.078;8.648;2023-12-20T12:08:07;99904.84;;;4.88;100.00
19005;BME280;9635;52.078;8.648;2023-12-20T12:13:10;99900.53;;;4.72;100.00
19005;BME280;9635;52.078;8.648;2023-12-20T12:18:18;99901.13;;;5.04;100.00
19005;BME280;9635;52.078;8.648;2023-12-20T12:23:23;99908.81;;;4.68;100.00
19005;BME280;9635;52.078;8.648;2023-12-20T12:28:26;99896.88;;;4.88;100.00
19005;BME280;9635;52.078;8.648;2023-12-20T12:33:32;99898.22;;;5.22;100.00
19005;BME280;9635;52.078;8.648;2023-12-20T12:38:35;99890.53;;;4.76;100.00
19005;BME280;9635;52.078;8.648;2023-12-20T12:43:38;99885.78;;;5.35;100.00
19005;BME280;9635;52.078;8.648;2023-12-20T12:48:43;99897.47;;;5.20;100.00
19005;BME280;9635;52.078;8.648;2023-12-20T12:53:48;99907.97;;;5.09;100.00
19005;BME280;9635;52.078;8.648;2023-12-20T12:58:51;99915.22;;;4.92;100.00
19005;BME280;9635;52.078;8.648;2023-12-20T13:03:55;99929.81;;;4.72;100.00
19005;BME280;9635;52.078;8.648;2023-12-20T13:08:58;99931.25;;;4.35;100.00
19005;BME280;9635;52.078;8.648;2023-12-20T13:14:01;99933.28;;;3.72;100.00
19005;BME280;9635;52.078;8.648;2023-12-20T13:19:06;99919.41;;;3.53;100.00
19005;BME280;9635;52.078;8.648;2023-12-20T13:24:10;99919.81;;;3.61;100.00
19005;BME280;9635;52.078;8.648;2023-12-20T13:29:13;99893.44;;;3.72;100.00
19005;BME280;9635;52.078;8.648;2023-12-20T13:34:17;99882.94;;;4.00;100.00
19005;BME280;9635;52.078;8.648;2023-12-20T13:39:21;99889.59;;;3.92;100.00
19005;BME280;9635;52.078;8.648;2023-12-20T13:44:24;99901.84;;;4.09;100.00
19005;BME280;9635;52.078;8.648;2023-12-20T13:49:28;99890.63;;;3.90;100.00
19005;BME280;9635;52.078;8.648;2023-12-20T13:54:31;99884.63;;;3.86;100.00
19005;BME280;9635;52.078;8.648;2023-12-20T13:59:34;99894.47;;;3.70;100.00
19005;BME280;9635;52.078;8.648;2023-12-20T14:04:39;99883.31;;;3.65;100.00
19005;BME280;9635;52.078;8.648;2023-12-20T14:09:44;99884.94;;;3.82;100.00
19005;BME280;9635;52.078;8.648;2023-12-20T14:14:48;99900.19;;;3.78;100.00
19005;BME280;9635;52.078;8.648;2023-12-20T14:19:52;99889.41;;;4.10;100.00
19005;BME280;9635;52.078;8.648;2023-12-20T14:24:56;99882.09;;;3.70;100.00
19005;BME280;9635;52.078;8.648;2023-12-20T14:29:59;99884.25;;;3.78;100.00
19005;BME280;9635;52.078;8.648;2023-12-20T14:35:05;99888.06;;;3.74;100.00
19005;BME280;9635;52.078;8.648;2023-12-20T14:40:09;99890.44;;;3.79;100.00
19005;BME280;9635;52.078;8.648;2023-12-20T14:45:17;99889.09;;;4.00;100.00
19005;BME280;9635;52.078;8.648;2023-12-20T14:50:22;99890.44;;;3.79;100.00
19005;BME280;9635;52.078;8.648;2023-12-20T14:55:25;99890.44;;;4.07;100.00
19005;BME280;9635;52.078;8.648;2023-12-20T15:00:29;99896.53;;;3.95;100.00
19005;BME280;9635;52.078;8.648;2023-12-20T15:05:34;99878.94;;;3.78;100.00
19005;BME280;9635;52.078;8.648;2023-12-20T15:10:37;99882.81;;;3.58;100.00
19005;BME280;9635;52.078;8.648;2023-12-20T15:15:40;99882.66;;;4.04;100.00
19005;BME280;9635;52.078;8.648;2023-12-20T15:20:49;99879.44;;;3.70;100.00
19005;BME280;9635;52.078;8.648;2023-12-20T15:25:52;99876.69;;;4.15;100.00
19005;BME280;9635;52.078;8.648;2023-12-20T15:30:55;99881.50;;;3.94;100.00
19005;BME280;9635;52.078;8.648;2023-12-20T15:36:00;99879.72;;;4.23;100.00
19005;BME280;9635;52.078;8.648;2023-12-20T15:41:03;99873.91;;;4.02;100.00
19005;BME280;9635;52.078;8.648;2023-12-20T15:46:06;99880.97;;;4.17;100.00
19005;BME280;9635;52.078;8.648;2023-12-20T15:51:10;99871.47;;;3.85;100.00
19005;BME280;9635;52.078;8.648;2023-12-20T15:56:13;99866.91;;;4.15;100.00
19005;BME280;9635;52.078;8.648;2023-12-20T16:01:16;99848.84;;;3.92;100.00
19005;BME280;9635;52.078;8.648;2023-12-20T16:06:21;99837.84;;;3.84;100.00
19005;BME280;9635;52.078;8.648;2023-12-20T16:11:23;99840.72;;;3.95;100.00
19005;BME280;9635;52.078;8.648;2023-12-20T16:16:26;99829.91;;;3.98;100.00
19005;BME280;9635;52.078;8.648;2023-12-20T16:21:31;99823.44;;;4.02;100.00
19005;BME280;9635;52.078;8.648;2023-12-20T16:26:34;99837.84;;;3.84;100.00
19005;BME280;9635;52.078;8.648;2023-12-20T16:31:37;99825.69;;;4.08;100.00
19005;BME280;9635;52.078;8.648;2023-12-20T16:36:52;99828.47;;;3.92;100.00
19005;BME280;9635;52.078;8.648;2023-12-20T16:41:56;99827.91;;;4.02;100.00
19005;BME280;9635;52.078;8.648;2023-12-20T16:46:59;99822.06;;;4.24;100.00
19005;BME280;9635;52.078;8.648;2023-12-20T16:52:04;99806.34;;;3.92;100.00
19005;BME280;9635;52.078;8.648;2023-12-20T16:57:08;99812.69;;;4.18;100.00
19005;BME280;9635;52.078;8.648;2023-12-20T17:02:11;99826.47;;;4.10;100.00
19005;BME280;9635;52.078;8.648;2023-12-20T17:07:15;99818.97;;;4.17;100.00
19005;BME280;9635;52.078;8.648;2023-12-20T17:12:19;99821.16;;;4.52;100.00
19005;BME280;9635;52.078;8.648;2023-12-20T17:17:22;99809.25;;;4.57;100.00
19005;BME280;9635;52.078;8.648;2023-12-20T17:22:26;99809.38;;;4.56;100.00
19005;BME280;9635;52.078;8.648;2023-12-20T17:27:29;99800.91;;;4.76;100.00
19005;BME280;9635;52.078;8.648;2023-12-20T17:32:32;99805.03;;;4.68;100.00
19005;BME280;9635;52.078;8.648;2023-12-20T17:37:40;99792.63;;;5.08;100.00
19005;BME280;9635;52.078;8.648;2023-12-20T17:42:44;99800.56;;;4.95;100.00
19005;BME280;9635;52.078;8.648;2023-12-20T17:47:47;99797.56;;;4.87;100.00
19005;BME280;9635;52.078;8.648;2023-12-20T17:52:51;99791.13;;;4.77;100.00
19005;BME280;9635;52.078;8.648;2023-12-20T17:57:57;99793.19;;;4.86;100.00
19005;BME280;9635;52.078;8.648;2023-12-20T18:03:00;99781.00;;;4.69;100.00
19005;BME280;9635;52.078;8.648;2023-12-20T18:08:05;99761.13;;;4.88;100.00
19005;BME280;9635;52.078;8.648;2023-12-20T18:13:08;99774.56;;;4.86;100.00
19005;BME280;9635;52.078;8.648;2023-12-20T18:18:11;99761.47;;;4.83;100.00
19005;BME280;9635;52.078;8.648;2023-12-20T18:23:15;99736.13;;;4.77;100.00
19005;BME280;9635;52.078;8.648;2023-12-20T18:28:18;99742.09;;;4.81;100.00
19005;BME280;9635;52.078;8.648;2023-12-20T18:33:22;99723.16;;;4.86;100.00
19005;BME280;9635;52.078;8.648;2023-12-20T18:38:26;99725.81;;;4.98;100.00
19005;BME280;9635;52.078;8.648;2023-12-20T18:43:31;99718.94;;;4.69;100.00
19005;BME280;9635;52.078;8.648;2023-12-20T18:48:34;99707.03;;;4.74;100.00
19005;BME280;9635;52.078;8.648;2023-12-20T18:53:41;99713.97;;;4.77;100.00
19005;BME280;9635;52.078;8.648;2023-12-20T18:58:44;99687.38;;;4.90;100.00
19005;BME280;9635;52.078;8.648;2023-12-20T19:03:48;99682.00;;;4.51;100.00
19005;BME280;9635;52.078;8.648;2023-12-20T19:08:52;99671.16;;;4.54;100.00
19005;BME280;9635;52.078;8.648;2023-12-20T19:13:55;99663.28;;;4.66;100.00
19005;BME280;9635;52.078;8.648;2023-12-20T19:18:58;99659.97;;;5.02;100.00
19005;BME280;9635;52.078;8.648;2023-12-20T19:24:04;99658.84;;;4.92;100.00
19005;BME280;9635;52.078;8.648;2023-12-20T19:29:07;99650.56;;;4.83;100.00
19005;BME280;9635;52.078;8.648;2023-12-20T19:34:10;99648.09;;;4.68;100.00
19005;BME280;9635;52.078;8.648;2023-12-20T19:39:14;99640.28;;;4.52;100.00
19005;BME280;9635;52.078;8.648;2023-12-20T19:44:17;99624.22;;;4.66;100.00
19005;BME280;9635;52.078;8.648;2023-12-20T19:49:21;99604.66;;;4.54;100.00
19005;BME280;9635;52.078;8.648;2023-12-20T19:54:25;99605.28;;;4.96;100.00
19005;BME280;9635;52.078;8.648;2023-12-20T19:59:28;99614.44;;;4.79;100.00
19005;BME280;9635;52.078;8.648;2023-12-20T20:04:31;99586.47;;;4.87;100.00
19005;BME280;9635;52.078;8.648;2023-12-20T20:09:36;99568.16;;;4.82;100.00
19005;BME280;9635;52.078;8.648;2023-12-20T20:14:39;99554.09;;;4.80;100.00
19005;BME280;9635;52.078;8.648;2023-12-20T20:19:42;99567.97;;;4.72;100.00
19005;BME280;9635;52.078;8.648;2023-12-20T20:24:46;99553.16;;;4.94;100.00
19005;BME280;9635;52.078;8.648;2023-12-20T20:29:49;99517.16;;;5.01;100.00
19005;BME280;9635;52.078;8.648;2023-12-20T20:34:52;99523.44;;;4.87;100.00
19005;BME280;9635;52.078;8.648;2023-12-20T20:39:57;99520.03;;;4.98;100.00
19005;BME280;9635;52.078;8.648;2023-12-20T20:45:01;99492.38;;;5.00;100.00
19005;BME280;9635;52.078;8.648;2023-12-20T20:50:06;99466.34;;;5.17;100.00
19005;BME280;9635;52.078;8.648;2023-12-20T20:55:11;99491.81;;;4.95;100.00
19005;BME280;9635;52.078;8.648;2023-12-20T21:00:14;99487.03;;;5.00;100.00
19005;BME280;9635;52.078;8.648;2023-12-20T21:05:17;99469.56;;;4.96;100.00
19005;BME280;9635;52.078;8.648;2023-12-20T21:10:22;99460.88;;;5.18;100.00
19005;BME280;9635;52.078;8.648;2023-12-20T21:15:25;99456.91;;;5.48;100.00
19005;BME280;9635;52.078;8.648;2023-12-20T21:20:28;99451.47;;;5.01;100.00
19005;BME280;9635;52.078;8.648;2023-12-20T21:25:32;99447.16;;;5.24;100.00
19005;BME280;9635;52.078;8.648;2023-12-20T21:30:36;99442.31;;;5.05;100.00
19005;BME280;9635;52.078;8.648;2023-12-20T21:35:40;99433.41;;;4.94;100.00
19005;BME280;9635;52.078;8.648;2023-12-20T21:40:44;99417.84;;;5.00;100.00
19005;BME280;9635;52.078;8.648;2023-12-20T21:45:48;99405.06;;;5.05;100.00
19005;BME280;9635;52.078;8.648;2023-12-20T21:50:52;99381.38;;;5.14;100.00
19005;BME280;9635;52.078;8.648;2023-12-20T21:55:56;99367.00;;;5.16;100.00
19005;BME280;9635;52.078;8.648;2023-12-20T22:00:59;99362.59;;;5.15;100.00
19005;BME280;9635;52.078;8.648;2023-12-20T22:06:06;99359.16;;;5.26;100.00
19005;BME280;9635;52.078;8.648;2023-12-20T22:11:12;99369.53;;;5.18;100.00
19005;BME280;9635;52.078;8.648;2023-12-20T22:16:15;99367.38;;;5.23;100.00
19005;BME280;9635;52.078;8.648;2023-12-20T22:21:18;99384.13;;;5.12;100.00
19005;BME280;9635;52.078;8.648;2023-12-20T22:26:22;99386.22;;;5.44;100.00
19005;BME280;9635;52.078;8.648;2023-12-20T22:31:25;99376.16;;;5.47;100.00
19005;BME280;9635;52.078;8.648;2023-12-20T22:36:28;99371.25;;;5.54;100.00
19005;BME280;9635;52.078;8.648;2023-12-20T22:41:33;99367.38;;;5.23;100.00
19005;BME280;9635;52.078;8.648;2023-12-20T22:46:36;99347.09;;;5.33;100.00
19005;BME280;9635;52.078;8.648;2023-12-20T22:51:39;99358.00;;;5.41;100.00
19005;BME280;9635;52.078;8.648;2023-12-20T22:56:43;99351.94;;;5.39;100.00
19005;BME280;9635;52.078;8.648;2023-12-20T23:01:46;99344.56;;;5.43;100.00
19005;BME280;9635;52.078;8.648;2023-12-20T23:06:49;99337.06;;;5.48;100.00
19005;BME280;9635;52.078;8.648;2023-12-20T23:11:54;99329.97;;;5.60;100.00
19005;BME280;9635;52.078;8.648;2023-12-20T23:16:57;99313.84;;;5.72;100.00
19005;BME280;9635;52.078;8.648;2023-12-20T23:22:00;99316.50;;;5.61;100.00
19005;BME280;9635;52.078;8.648;2023-12-20T23:27:04;99270.03;;;5.65;100.00
19005;BME280;9635;52.078;8.648;2023-12-20T23:32:07;99284.69;;;5.71;100.00
19005;BME280;9635;52.078;8.648;2023-12-20T23:37:11;99288.06;;;5.62;100.00
19005;BME280;9635;52.078;8.648;2023-12-20T23:42:15;99287.69;;;5.44;100.00
19005;BME280;9635;52.078;8.648;2023-12-20T23:47:20;99262.28;;;5.73;100.00
19005;BME280;9635;52.078;8.648;2023-12-20T23:52:24;99266.25;;;5.57;100.00
19005;BME280;9635;52.078;8.648;2023-12-20T23:57:29;99239.88;;;5.76;100.00
